createdAt,value
2023-04-18T00:00:32.013Z,49.36
2023-04-18T00:03:00.911Z,50.11
2023-04-18T00:05:29.733Z,49.96
2023-04-18T00:07:56.633Z,49.45
2023-04-18T00:10:23.190Z,50.85
2023-04-18T00:12:49.680Z,50.52
2023-04-18T00:15:16.209Z,50.80
2023-04-18T00:17:42.931Z,50.78
2023-04-18T00:20:11.156Z,51.43
2023-04-18T00:22:42.404Z,52.10
2023-04-18T00:25:09.163Z,52.77
2023-04-18T00:27:35.502Z,53.29
2023-04-18T00:30:01.889Z,53.52
2023-04-18T00:32:28.402Z,54.06
2023-04-18T00:34:54.845Z,54.31
2023-04-18T00:37:21.222Z,55.14
2023-04-18T00:39:49.038Z,56.14
2023-04-18T00:42:15.405Z,56.44
2023-04-18T00:44:41.738Z,56.33
2023-04-18T00:47:09.488Z,56.40
2023-04-18T00:49:35.865Z,57.58
2023-04-18T00:52:02.205Z,57.02
2023-04-18T00:54:28.529Z,57.44
2023-04-18T00:56:54.905Z,58.22
2023-04-18T00:59:22.043Z,57.29
2023-04-18T01:01:48.466Z,58.00
2023-04-18T01:04:15.278Z,57.07
2023-04-18T01:06:44.001Z,57.56
2023-04-18T01:09:10.836Z,57.76
2023-04-18T01:11:37.186Z,58.20
2023-04-18T01:14:03.638Z,57.74
2023-04-18T01:16:30.060Z,57.47
2023-04-18T01:18:57.018Z,57.49
2023-04-18T01:21:23.431Z,58.98
2023-04-18T01:23:49.836Z,59.90
2023-04-18T01:26:16.229Z,59.20
2023-04-18T01:28:42.620Z,58.62
2023-04-18T01:31:09.007Z,59.70
2023-04-18T01:33:36.558Z,59.23
2023-04-18T01:36:02.938Z,59.98
2023-04-18T01:38:30.478Z,58.79
2023-04-18T01:40:56.922Z,59.00
2023-04-18T01:43:23.217Z,59.08
2023-04-18T01:45:49.600Z,59.67
2023-04-18T01:48:15.998Z,59.10
2023-04-18T01:50:42.503Z,59.61
2023-04-18T01:53:10.275Z,59.36
2023-04-18T01:55:36.885Z,60.36
2023-04-18T01:58:03.224Z,60.25
2023-04-18T02:00:29.655Z,60.68
2023-04-18T02:02:56.252Z,61.60
2023-04-18T02:05:22.723Z,59.86
2023-04-18T02:07:50.208Z,61.51
2023-04-18T02:10:17.128Z,61.47
2023-04-18T02:12:44.829Z,60.26
2023-04-18T02:15:11.191Z,61.36
2023-04-18T02:17:37.962Z,61.21
2023-04-18T02:20:04.389Z,61.12
2023-04-18T02:22:30.946Z,61.88
2023-04-18T02:25:00.130Z,61.54
2023-04-18T02:27:26.529Z,61.76
2023-04-18T02:29:56.522Z,62.69
2023-04-18T02:32:22.959Z,63.36
2023-04-18T02:34:49.328Z,62.65
2023-04-18T02:37:16.068Z,62.09
2023-04-18T02:39:42.416Z,63.73
2023-04-18T02:42:08.803Z,64.02
2023-04-18T02:44:35.288Z,64.24
2023-04-18T02:47:01.817Z,64.29
2023-04-18T02:49:29.269Z,63.97
2023-04-18T02:51:58.694Z,64.13
2023-04-18T02:54:25.129Z,64.61
2023-04-18T02:57:11.795Z,64.20
2023-04-18T02:59:46.994Z,64.73
2023-04-18T03:02:30.858Z,64.64
2023-04-18T03:05:04.044Z,64.13
2023-04-18T03:07:30.913Z,64.01
2023-04-18T03:09:58.438Z,64.27
2023-04-18T03:12:29.645Z,64.92
2023-04-18T03:14:56.327Z,64.06
2023-04-18T03:17:23.109Z,64.08
2023-04-18T03:19:49.817Z,64.71
2023-04-18T03:22:19.231Z,65.10
2023-04-18T03:24:52.368Z,64.62
2023-04-18T03:27:20.376Z,64.77
2023-04-18T03:29:47.446Z,65.23
2023-04-18T03:32:14.650Z,64.78
2023-04-18T03:34:40.989Z,63.77
2023-04-18T03:37:08.368Z,65.18
2023-04-18T03:39:40.788Z,64.25
2023-04-18T03:42:07.688Z,62.98
2023-04-18T03:44:34.822Z,63.48
2023-04-18T03:47:01.280Z,64.56
2023-04-18T03:49:29.885Z,64.34
2023-04-18T03:51:56.490Z,65.25
2023-04-18T03:54:24.163Z,64.54
2023-04-18T03:56:50.564Z,65.22
2023-04-18T03:59:17.854Z,64.78
2023-04-18T04:01:48.599Z,65.78
2023-04-18T04:04:15.781Z,65.32
2023-04-18T04:06:42.615Z,65.97
2023-04-18T04:09:08.990Z,65.63
2023-04-18T04:11:35.496Z,65.17
2023-04-18T04:14:02.400Z,63.98
2023-04-18T04:16:34.983Z,65.51
2023-04-18T04:19:02.239Z,65.54
2023-04-18T04:21:36.242Z,65.93
2023-04-18T04:24:03.890Z,65.26
2023-04-18T04:26:35.765Z,67.26
2023-04-18T04:29:11.721Z,66.12
2023-04-18T04:31:39.102Z,66.80
2023-04-18T04:34:06.216Z,65.85
2023-04-18T04:36:33.437Z,66.71
2023-04-18T04:39:04.219Z,66.10
2023-04-18T04:41:53.485Z,66.57
2023-04-18T04:44:26.109Z,66.22
2023-04-18T04:46:54.526Z,65.72
2023-04-18T04:49:25.851Z,66.64
2023-04-18T04:51:52.250Z,65.86
2023-04-18T04:54:19.954Z,66.07
2023-04-18T04:56:46.296Z,64.37
2023-04-18T04:59:12.983Z,65.18
2023-04-18T05:01:41.463Z,64.11
2023-04-18T05:04:07.990Z,65.41
2023-04-18T05:06:34.386Z,65.00
2023-04-18T05:09:01.200Z,63.83
2023-04-18T05:11:27.678Z,64.13
2023-04-18T05:13:54.062Z,63.93
2023-04-18T05:16:20.880Z,64.87
2023-04-18T05:18:47.251Z,64.98
2023-04-18T05:21:13.701Z,64.89
2023-04-18T05:23:40.080Z,64.95
2023-04-18T05:26:06.484Z,64.08
2023-04-18T05:28:32.840Z,63.20
2023-04-18T05:31:02.193Z,62.34
2023-04-18T05:33:28.703Z,63.53
2023-04-18T05:35:55.546Z,63.16
2023-04-18T05:38:21.982Z,63.63
2023-04-18T05:40:51.051Z,62.93
2023-04-18T05:43:17.530Z,62.40
2023-04-18T05:45:43.903Z,62.55
2023-04-18T05:48:10.318Z,60.99
2023-04-18T05:50:36.777Z,62.09
2023-04-18T05:53:03.161Z,61.50
2023-04-18T05:55:29.513Z,61.17
2023-04-18T05:57:55.903Z,61.42
2023-04-18T06:00:22.320Z,62.99
2023-04-18T06:02:49.664Z,63.31
2023-04-18T06:05:16.638Z,61.33
2023-04-18T06:07:43.168Z,60.97
2023-04-18T06:10:13.227Z,61.24
2023-04-18T06:12:39.666Z,61.26
2023-04-18T06:15:06.495Z,61.27
2023-04-18T06:17:33.694Z,61.63
2023-04-18T06:20:00.170Z,60.33
2023-04-18T06:22:26.547Z,61.13
2023-04-18T06:24:55.325Z,60.89
2023-04-18T06:27:30.466Z,60.89
2023-04-18T06:29:58.106Z,60.20
2023-04-18T06:32:24.736Z,60.88
2023-04-18T06:34:52.973Z,60.95
2023-04-18T06:37:19.457Z,60.96
2023-04-18T06:39:46.037Z,60.77
2023-04-18T06:42:12.461Z,61.58
2023-04-18T06:44:44.146Z,61.39
2023-04-18T06:47:10.574Z,62.00
2023-04-18T06:49:37.102Z,59.65
2023-04-18T06:52:03.590Z,61.04
2023-04-18T06:54:30.015Z,60.65
2023-04-18T06:56:57.279Z,61.64
2023-04-18T06:59:23.706Z,61.58
2023-04-18T07:01:50.725Z,60.96
2023-04-18T07:04:17.430Z,62.46
2023-04-18T07:06:44.083Z,63.44
2023-04-18T07:09:10.477Z,61.25
2023-04-18T07:11:36.894Z,60.72
2023-04-18T07:14:03.405Z,62.58
2023-04-18T07:16:30.007Z,61.99
2023-04-18T07:18:56.500Z,62.33
2023-04-18T07:21:23.829Z,61.48
2023-04-18T07:23:50.234Z,60.89
2023-04-18T07:26:16.632Z,60.90
2023-04-18T07:28:43.028Z,60.24
2023-04-18T07:31:11.489Z,59.93
2023-04-18T07:33:38.014Z,61.07
2023-04-18T07:36:04.415Z,61.35
2023-04-18T07:38:30.810Z,59.82
2023-04-18T07:40:57.226Z,60.04
2023-04-18T07:43:23.640Z,60.21
2023-04-18T07:45:50.010Z,61.49
2023-04-18T07:48:16.797Z,60.10
2023-04-18T07:50:43.253Z,60.82
2023-04-18T07:53:09.634Z,59.36
2023-04-18T07:55:36.431Z,58.96
2023-04-18T07:58:02.787Z,58.12
2023-04-18T08:00:32.485Z,58.03
2023-04-18T08:02:59.038Z,58.49
2023-04-18T08:05:25.781Z,60.02
2023-04-18T08:07:52.824Z,58.55
2023-04-18T08:10:19.202Z,59.69
2023-04-18T08:12:45.584Z,59.18
2023-04-18T08:15:11.945Z,59.92
2023-04-18T08:17:39.010Z,62.00
2023-04-18T08:20:08.538Z,60.62
2023-04-18T08:22:35.921Z,60.67
2023-04-18T08:25:05.976Z,58.79
2023-04-18T08:27:32.524Z,58.94
2023-04-18T08:29:58.962Z,58.05
2023-04-18T08:32:25.376Z,58.47
2023-04-18T08:34:51.793Z,57.34
2023-04-18T08:37:18.222Z,58.61
2023-04-18T08:39:45.076Z,61.83
2023-04-18T08:42:11.797Z,60.35
2023-04-18T08:44:38.223Z,57.97
2023-04-18T08:47:04.569Z,58.70
2023-04-18T08:49:31.370Z,59.26
2023-04-18T08:51:57.948Z,57.07
2023-04-18T08:54:25.583Z,56.93
2023-04-18T08:56:53.599Z,58.01
2023-04-18T08:59:20.512Z,61.62
2023-04-18T09:01:48.386Z,59.84
2023-04-18T09:04:15.006Z,59.08
2023-04-18T09:06:42.805Z,59.21
2023-04-18T09:09:09.174Z,60.52
2023-04-18T09:11:35.700Z,61.64
2023-04-18T09:14:02.465Z,61.80
2023-04-18T09:16:29.773Z,61.90
2023-04-18T09:18:56.181Z,61.03
2023-04-18T09:21:22.531Z,60.21
2023-04-18T09:23:50.336Z,59.76
2023-04-18T09:26:16.743Z,59.00
2023-04-18T09:28:43.184Z,60.01
2023-04-18T09:31:10.219Z,59.59
2023-04-18T09:33:37.034Z,59.11
2023-04-18T09:36:03.634Z,59.65
2023-04-18T09:38:30.049Z,60.84
2023-04-18T09:40:56.389Z,60.10
2023-04-18T09:43:22.867Z,61.22
2023-04-18T09:45:49.365Z,59.42
2023-04-18T09:48:16.012Z,58.43
2023-04-18T09:50:42.403Z,61.63
2023-04-18T09:53:08.896Z,61.17
2023-04-18T09:55:35.290Z,59.48
2023-04-18T09:58:01.647Z,59.51
2023-04-18T10:00:28.037Z,59.34
2023-04-18T10:02:54.567Z,58.42
2023-04-18T10:05:21.446Z,58.67
2023-04-18T10:07:47.942Z,57.94
2023-04-18T10:10:14.493Z,61.77
2023-04-18T10:12:41.284Z,59.72
2023-04-18T10:15:07.697Z,59.79
2023-04-18T10:17:34.089Z,61.28
2023-04-18T10:20:00.477Z,60.92
2023-04-18T10:22:26.887Z,59.96
2023-04-18T10:24:53.617Z,60.18
2023-04-18T10:27:20.194Z,59.43
2023-04-18T10:29:46.554Z,58.22
2023-04-18T10:32:12.954Z,58.66
2023-04-18T10:34:39.363Z,58.95
2023-04-18T10:37:05.882Z,57.24
2023-04-18T10:39:32.374Z,59.41
2023-04-18T10:41:58.855Z,58.06
2023-04-18T10:44:25.630Z,58.26
2023-04-18T10:46:52.288Z,58.73
2023-04-18T10:49:18.764Z,57.58
2023-04-18T10:51:45.291Z,59.36
2023-04-18T10:54:11.752Z,58.95
2023-04-18T10:56:39.184Z,58.38
2023-04-18T10:59:05.653Z,59.76
2023-04-18T11:01:33.154Z,58.90
2023-04-18T11:03:59.831Z,58.06
2023-04-18T11:06:31.173Z,56.54
2023-04-18T11:08:57.546Z,55.88
2023-04-18T11:11:24.603Z,56.87
2023-04-18T11:13:51.035Z,57.09
2023-04-18T11:16:17.484Z,58.30
2023-04-18T11:18:43.815Z,56.52
2023-04-18T11:21:10.225Z,56.93
2023-04-18T11:23:36.668Z,56.23
2023-04-18T11:26:03.271Z,55.97
2023-04-18T11:28:29.770Z,57.58
2023-04-18T11:30:56.168Z,57.69
2023-04-18T11:33:22.712Z,57.47
2023-04-18T11:35:49.197Z,55.37
2023-04-18T11:38:16.850Z,54.68
2023-04-18T11:40:43.261Z,55.06
2023-04-18T11:43:09.619Z,56.46
2023-04-18T11:45:36.133Z,54.54
2023-04-18T11:48:02.618Z,53.93
2023-04-18T11:50:29.051Z,55.98
2023-04-18T11:52:55.572Z,55.60
2023-04-18T11:55:22.023Z,54.12
2023-04-18T11:57:48.413Z,53.77
2023-04-18T12:00:14.971Z,55.39
2023-04-18T12:02:41.699Z,55.96
2023-04-18T12:05:08.540Z,54.96
2023-04-18T12:07:35.907Z,55.34
2023-04-18T12:10:02.473Z,54.45
2023-04-18T12:12:29.036Z,54.56
2023-04-18T12:14:55.383Z,54.83
2023-04-18T12:17:21.774Z,53.80
2023-04-18T12:19:49.840Z,53.11
2023-04-18T12:22:16.844Z,55.58
2023-04-18T12:24:43.354Z,55.19
2023-04-18T12:27:11.896Z,54.54
2023-04-18T12:29:38.300Z,54.95
2023-04-18T12:32:04.731Z,55.47
2023-04-18T12:34:31.078Z,55.36
2023-04-18T12:36:57.463Z,54.23
2023-04-18T12:39:23.831Z,55.50
2023-04-18T12:41:50.260Z,55.94
2023-04-18T12:44:16.786Z,54.86
2023-04-18T12:46:43.279Z,56.02
2023-04-18T12:49:09.704Z,54.46
2023-04-18T12:51:36.066Z,54.14
2023-04-18T12:54:02.512Z,54.25
2023-04-18T12:56:28.858Z,53.93
2023-04-18T12:58:55.181Z,53.63
2023-04-18T13:01:21.977Z,53.37
2023-04-18T13:03:53.678Z,52.42
2023-04-18T13:06:26.588Z,51.87
2023-04-18T13:08:52.961Z,52.87
2023-04-18T13:11:20.531Z,51.53
2023-04-18T13:13:46.921Z,51.98
2023-04-18T13:16:13.286Z,51.96
2023-04-18T13:18:39.667Z,51.72
2023-04-18T13:21:06.196Z,53.61
2023-04-18T13:23:32.565Z,54.00
2023-04-18T13:25:58.936Z,54.05
2023-04-18T13:28:25.329Z,51.94
2023-04-18T13:30:51.693Z,50.86
2023-04-18T13:33:18.214Z,51.65
2023-04-18T13:35:44.991Z,52.55
2023-04-18T13:38:11.360Z,52.14
2023-04-18T13:40:38.816Z,52.72
2023-04-18T13:43:05.311Z,52.81
2023-04-18T13:45:31.634Z,52.77
2023-04-18T13:47:58.068Z,53.58
2023-04-18T13:50:24.534Z,52.41
2023-04-18T13:52:52.010Z,51.92
2023-04-18T13:55:18.741Z,52.27
2023-04-18T13:57:45.831Z,51.76
2023-04-18T14:00:14.111Z,52.12
2023-04-18T14:02:40.661Z,52.78
2023-04-18T14:05:07.388Z,52.06
2023-04-18T14:07:33.999Z,52.39
2023-04-18T14:10:00.687Z,52.20
2023-04-18T14:12:27.220Z,51.82
2023-04-18T14:14:53.678Z,51.39
2023-04-18T14:17:20.125Z,52.26
2023-04-18T14:19:46.645Z,52.49
2023-04-18T14:22:13.003Z,51.14
2023-04-18T14:24:39.394Z,51.90
2023-04-18T14:27:05.830Z,52.42
2023-04-18T14:29:32.194Z,50.96
2023-04-18T14:31:58.601Z,51.77
2023-04-18T14:34:24.934Z,51.47
2023-04-18T14:36:51.333Z,51.44
2023-04-18T14:39:17.734Z,52.18
2023-04-18T14:41:45.754Z,51.14
2023-04-18T14:44:13.462Z,51.79
2023-04-18T14:46:39.797Z,51.88
2023-04-18T14:49:06.311Z,51.14
2023-04-18T14:51:32.755Z,49.91
2023-04-18T14:53:59.182Z,50.68
2023-04-18T14:56:25.657Z,49.98
2023-04-18T14:58:52.002Z,49.69
2023-04-18T15:01:18.612Z,47.99
2023-04-18T15:03:45.420Z,48.03
2023-04-18T15:06:12.063Z,48.19
2023-04-18T15:08:38.456Z,49.20
2023-04-18T15:11:05.320Z,48.56
2023-04-18T15:13:31.772Z,48.84
2023-04-18T15:15:58.398Z,48.32
2023-04-18T15:18:24.759Z,48.81
2023-04-18T15:20:51.157Z,47.66
2023-04-18T15:23:17.541Z,47.98
2023-04-18T15:25:43.914Z,48.42
2023-04-18T15:28:10.396Z,50.11
2023-04-18T15:30:36.719Z,49.77
2023-04-18T15:33:03.266Z,49.68
2023-04-18T15:35:29.699Z,48.59
2023-04-18T15:37:56.501Z,48.95
2023-04-18T15:40:22.917Z,48.25
2023-04-18T15:42:50.920Z,47.86
2023-04-18T15:45:17.350Z,46.26
2023-04-18T15:47:44.218Z,47.62
2023-04-18T15:50:11.048Z,47.05
2023-04-18T15:52:37.474Z,48.30
2023-04-18T15:55:04.910Z,49.42
2023-04-18T15:57:31.312Z,48.76
2023-04-18T15:59:59.325Z,48.77
2023-04-18T16:02:25.975Z,49.78
2023-04-18T16:04:52.407Z,49.51
2023-04-18T16:07:18.817Z,50.18
2023-04-18T16:09:45.204Z,49.42
2023-04-18T16:12:11.665Z,48.52
2023-04-18T16:14:38.056Z,49.21
2023-04-18T16:17:04.691Z,48.29
2023-04-18T16:19:31.139Z,47.72
2023-04-18T16:21:57.551Z,47.90
2023-04-18T16:24:25.591Z,46.75
2023-04-18T16:26:53.473Z,47.41
2023-04-18T16:29:19.880Z,48.02
2023-04-18T16:31:46.582Z,47.49
2023-04-18T16:34:13.331Z,47.39
2023-04-18T16:36:39.909Z,47.40
2023-04-18T16:39:06.253Z,46.93
2023-04-18T16:41:32.646Z,45.64
2023-04-18T16:43:59.009Z,45.59
2023-04-18T16:46:25.533Z,45.81
2023-04-18T16:48:52.647Z,46.41
2023-04-18T16:51:19.636Z,46.93
2023-04-18T16:53:47.455Z,46.68
2023-04-18T16:56:15.362Z,46.20
2023-04-18T16:58:41.752Z,46.48
2023-04-18T17:01:08.793Z,45.96
2023-04-18T17:03:36.588Z,46.58
2023-04-18T17:06:03.322Z,46.85
2023-04-18T17:08:31.939Z,47.20
2023-04-18T17:10:59.708Z,47.78
2023-04-18T17:13:27.275Z,47.03
2023-04-18T17:15:53.956Z,47.17
2023-04-18T17:18:21.847Z,46.92
2023-04-18T17:20:49.309Z,47.97
2023-04-18T17:23:15.854Z,47.56
2023-04-18T17:25:42.549Z,48.58
2023-04-18T17:28:09.538Z,48.36
2023-04-18T17:30:36.794Z,48.86
2023-04-18T17:33:03.270Z,49.46
2023-04-18T17:35:30.009Z,49.04
2023-04-18T17:37:56.792Z,50.50
2023-04-18T17:40:23.426Z,50.88
2023-04-18T17:42:50.581Z,49.99
2023-04-18T17:45:17.348Z,49.99
2023-04-18T17:47:43.784Z,50.90
2023-04-18T17:50:10.346Z,51.67
2023-04-18T17:52:37.289Z,52.10
2023-04-18T17:55:04.341Z,51.84
2023-04-18T17:57:32.934Z,52.21
2023-04-18T17:59:59.326Z,51.13
2023-04-18T18:02:28.249Z,51.80
2023-04-18T18:04:54.735Z,52.78
2023-04-18T18:07:21.234Z,53.50
2023-04-18T18:09:47.810Z,53.08
2023-04-18T18:12:14.632Z,53.76
2023-04-18T18:14:41.074Z,53.67
2023-04-18T18:17:07.672Z,54.19
2023-04-18T18:19:34.094Z,53.82
2023-04-18T18:22:00.551Z,54.43
2023-04-18T18:24:27.435Z,55.18
2023-04-18T18:26:54.032Z,54.56
2023-04-18T18:29:20.399Z,54.23
2023-04-18T18:31:46.904Z,54.70
2023-04-18T18:34:13.505Z,54.62
2023-04-18T18:36:40.190Z,54.66
2023-04-18T18:39:06.555Z,55.17
2023-04-18T18:41:33.069Z,55.23
2023-04-18T18:43:59.484Z,55.65
2023-04-18T18:46:27.651Z,55.41
2023-04-18T18:48:54.681Z,56.12
2023-04-18T18:51:22.046Z,56.41
2023-04-18T18:53:48.698Z,56.14
2023-04-18T18:56:15.350Z,55.57
2023-04-18T18:58:43.712Z,56.45
2023-04-18T19:01:11.395Z,56.39
2023-04-18T19:03:37.949Z,55.84
2023-04-18T19:06:05.802Z,56.59
2023-04-18T19:08:32.237Z,55.42
2023-04-18T19:10:58.685Z,56.07
2023-04-18T19:13:25.107Z,55.91
2023-04-18T19:15:51.906Z,55.74
2023-04-18T19:18:20.432Z,56.39
2023-04-18T19:20:47.032Z,56.97
2023-04-18T19:23:13.529Z,56.42
2023-04-18T19:25:39.920Z,57.52
2023-04-18T19:28:06.538Z,57.84
2023-04-18T19:30:32.978Z,57.39
2023-04-18T19:33:00.039Z,58.38
2023-04-18T19:35:26.454Z,58.54
2023-04-18T19:37:55.805Z,57.53
2023-04-18T19:40:23.727Z,57.67
2023-04-18T19:42:50.746Z,57.24
2023-04-18T19:45:17.140Z,57.30
2023-04-18T19:47:44.894Z,56.93
2023-04-18T19:50:11.930Z,57.76
2023-04-18T19:52:39.081Z,57.69
2023-04-18T19:55:05.615Z,56.67
2023-04-18T19:57:32.129Z,57.08
2023-04-18T19:59:58.584Z,56.62
2023-04-18T20:02:25.158Z,57.02
2023-04-18T20:04:51.924Z,57.09
2023-04-18T20:07:18.814Z,56.67
2023-04-18T20:09:45.321Z,56.96
2023-04-18T20:12:12.177Z,57.25
2023-04-18T20:14:38.662Z,57.11
2023-04-18T20:17:05.304Z,57.63
2023-04-18T20:19:31.828Z,57.48
2023-04-18T20:21:58.217Z,56.43
2023-04-18T20:24:27.889Z,58.38
2023-04-18T20:26:54.526Z,57.87
2023-04-18T20:29:20.883Z,55.97
2023-04-18T20:31:47.736Z,56.86
2023-04-18T20:34:14.078Z,57.37
2023-04-18T20:36:41.647Z,57.04
2023-04-18T20:39:08.367Z,57.27
2023-04-18T20:41:36.541Z,56.70
2023-04-18T20:44:05.441Z,57.97
2023-04-18T20:46:32.604Z,57.72
2023-04-18T20:48:59.494Z,57.42
2023-04-18T20:51:26.747Z,56.61
2023-04-18T20:53:53.973Z,57.67
2023-04-18T20:56:20.384Z,57.43
2023-04-18T20:58:46.975Z,57.97
2023-04-18T21:01:13.513Z,57.72
2023-04-18T21:03:40.036Z,56.98
2023-04-18T21:06:06.495Z,58.01
2023-04-18T21:08:35.044Z,57.00
2023-04-18T21:11:01.417Z,57.97
2023-04-18T21:13:27.790Z,56.04
2023-04-18T21:15:57.002Z,56.81
2023-04-18T21:18:23.614Z,56.22
2023-04-18T21:20:50.084Z,56.29
2023-04-18T21:23:18.238Z,56.29
2023-04-18T21:25:45.291Z,55.71
2023-04-18T21:28:11.754Z,57.07
2023-04-18T21:30:38.340Z,57.17
2023-04-18T21:33:04.793Z,57.24
2023-04-18T21:35:31.345Z,56.47
2023-04-18T21:37:57.792Z,57.11
2023-04-18T21:40:24.426Z,58.41
2023-04-18T21:42:53.886Z,57.83
2023-04-18T21:45:20.301Z,55.91
2023-04-18T21:47:46.842Z,57.58
2023-04-18T21:50:13.399Z,58.06
2023-04-18T21:52:39.912Z,56.58
2023-04-18T21:55:06.373Z,57.61
2023-04-18T21:57:32.914Z,58.39
2023-04-18T21:59:59.286Z,56.96
2023-04-18T22:02:26.206Z,57.54
2023-04-18T22:04:52.640Z,57.04
2023-04-18T22:07:19.010Z,57.74
2023-04-18T22:09:45.357Z,56.97
2023-04-18T22:12:14.197Z,56.66
2023-04-18T22:14:42.082Z,56.91
2023-04-18T22:17:09.434Z,57.49
2023-04-18T22:19:36.612Z,56.95
2023-04-18T22:22:03.050Z,57.82
2023-04-18T22:24:29.386Z,58.20
2023-04-18T22:26:55.802Z,56.55
2023-04-18T22:29:22.178Z,56.97
2023-04-18T22:31:48.532Z,56.48
2023-04-18T22:34:15.663Z,56.79
2023-04-18T22:36:42.777Z,56.37
2023-04-18T22:39:09.281Z,57.32
2023-04-18T22:41:35.720Z,57.44
2023-04-18T22:44:02.090Z,57.57
2023-04-18T22:46:28.635Z,58.14
2023-04-18T22:48:55.186Z,58.96
2023-04-18T22:51:23.769Z,58.80
2023-04-18T22:53:50.334Z,58.18
2023-04-18T22:56:16.701Z,59.06
2023-04-18T22:58:43.078Z,59.22
2023-04-18T23:01:09.471Z,60.04
2023-04-18T23:03:36.128Z,60.14
2023-04-18T23:06:02.565Z,59.67
2023-04-18T23:08:28.935Z,60.78
2023-04-18T23:10:55.442Z,59.15
2023-04-18T23:13:21.783Z,60.43
2023-04-18T23:15:48.209Z,59.35
2023-04-18T23:18:14.619Z,58.84
2023-04-18T23:20:40.965Z,59.01
2023-04-18T23:23:07.334Z,58.92
2023-04-18T23:25:33.849Z,59.28
2023-04-18T23:28:00.304Z,59.69
2023-04-18T23:30:26.751Z,59.03
2023-04-18T23:32:53.140Z,59.75
2023-04-18T23:35:19.588Z,59.57
2023-04-18T23:37:46.152Z,59.84
2023-04-18T23:40:12.579Z,59.41
2023-04-18T23:42:38.983Z,60.28
2023-04-18T23:45:05.958Z,61.10
2023-04-18T23:47:32.407Z,59.81
2023-04-18T23:49:58.824Z,60.96
2023-04-18T23:52:25.256Z,60.40
2023-04-18T23:54:51.914Z,61.45
2023-04-18T23:57:18.405Z,60.65
2023-04-18T23:59:44.756Z,60.81
